createdAt,value
2019-04-20T00:00:44.932Z,45.53
2019-04-20T00:03:10.239Z,45.82
2019-04-20T00:05:39.537Z,46.07
2019-04-20T00:08:14.995Z,46.05
2019-04-20T00:10:48.644Z,45.97
2019-04-20T00:13:20.985Z,45.90
2019-04-20T00:15:36.909Z,46.07
2019-04-20T00:18:07.154Z,46.30
2019-04-20T00:20:37.170Z,46.23
2019-04-20T00:23:12.453Z,46.18
2019-04-20T00:26:09.159Z,46.25
2019-04-20T00:28:46.061Z,46.32
2019-04-20T00:31:13.840Z,46.40
2019-04-20T00:33:41.013Z,46.43
2019-04-20T00:35:55.490Z,46.51
2019-04-20T00:38:29.082Z,46.59
2019-04-20T00:41:01.027Z,46.60
2019-04-20T00:43:29.135Z,46.53
2019-04-20T00:46:01.157Z,46.48
2019-04-20T00:48:33.867Z,46.59
2019-04-20T00:51:11.548Z,46.29
2019-04-20T00:53:30.303Z,46.38
2019-04-20T00:55:50.797Z,46.43
2019-04-20T00:58:27.052Z,46.64
2019-04-20T01:01:07.371Z,46.72
2019-04-20T01:03:33.977Z,46.96
2019-04-20T01:06:30.027Z,47.29
2019-04-20T01:09:03.371Z,47.16
2019-04-20T01:11:39.481Z,47.23
2019-04-20T01:14:06.020Z,47.42
2019-04-20T01:16:40.056Z,47.75
2019-04-20T01:18:59.827Z,47.80
2019-04-20T01:21:31.716Z,48.06
2019-04-20T01:24:02.908Z,47.90
2019-04-20T01:26:27.795Z,48.11
2019-04-20T01:29:08.774Z,48.05
2019-04-20T01:31:35.451Z,48.30
2019-04-20T01:34:03.102Z,48.48
2019-04-20T01:36:41.406Z,48.66
2019-04-20T01:39:02.746Z,48.96
2019-04-20T01:41:22.757Z,49.27
2019-04-20T01:43:52.307Z,49.66
2019-04-20T01:46:23.985Z,49.95
2019-04-20T01:48:50.640Z,50.66
2019-04-20T01:51:26.339Z,50.54
2019-04-20T01:54:06.541Z,50.83
2019-04-20T01:56:36.206Z,50.56
2019-04-20T01:59:19.972Z,51.21
2019-04-20T02:01:59.291Z,50.77
2019-04-20T02:04:32.641Z,51.24
2019-04-20T02:06:59.668Z,50.75
2019-04-20T02:09:28.019Z,50.73
2019-04-20T02:11:55.716Z,50.78
2019-04-20T02:14:32.213Z,50.76
2019-04-20T02:17:04.271Z,50.91
2019-04-20T02:19:34.441Z,50.90
2019-04-20T02:22:03.967Z,51.28
2019-04-20T02:24:21.682Z,51.25
2019-04-20T02:26:51.548Z,51.37
2019-04-20T02:29:39.867Z,51.68
2019-04-20T02:32:23.771Z,52.36
2019-04-20T02:34:59.805Z,52.26
2019-04-20T02:37:48.645Z,52.21
2019-04-20T02:40:12.908Z,52.34
2019-04-20T02:42:46.470Z,52.24
2019-04-20T02:47:41.283Z,52.31
2019-04-20T02:50:06.983Z,52.25
2019-04-20T02:52:42.544Z,52.03
2019-04-20T03:00:05.491Z,52.58
2019-04-20T03:02:19.488Z,52.71
2019-04-20T03:04:40.227Z,52.79
2019-04-20T03:07:15.644Z,52.65
2019-04-20T03:09:48.523Z,52.57
2019-04-20T03:12:23.730Z,52.60
2019-04-20T03:14:39.373Z,52.86
2019-04-20T03:17:23.429Z,52.75
2019-04-20T03:19:41.101Z,52.76
2019-04-20T03:22:19.166Z,52.83
2019-04-20T03:24:59.546Z,52.91
2019-04-20T03:27:32.500Z,52.75
2019-04-20T03:30:26.084Z,52.91
2019-04-20T03:33:05.955Z,53.07
2019-04-20T03:35:20.020Z,53.23
2019-04-20T03:37:52.637Z,53.69
2019-04-20T03:40:11.246Z,54.14
2019-04-20T03:42:22.295Z,54.03
2019-04-20T03:44:58.683Z,53.40
2019-04-20T03:47:31.438Z,53.34
2019-04-20T03:50:10.735Z,53.16
2019-04-20T03:52:43.394Z,53.29
2019-04-20T03:55:43.121Z,53.47
2019-04-20T03:58:24.277Z,53.46
2019-04-20T04:01:05.111Z,53.40
2019-04-20T04:03:54.754Z,53.11
2019-04-20T04:06:09.599Z,53.01
2019-04-20T04:08:36.404Z,52.98
2019-04-20T04:11:17.515Z,53.24
2019-04-20T04:13:27.056Z,52.59
2019-04-20T04:16:02.834Z,53.17
2019-04-20T04:18:31.875Z,53.23
2019-04-20T04:21:02.916Z,52.97
2019-04-20T04:23:43.184Z,53.44
2019-04-20T04:26:08.571Z,53.24
2019-04-20T04:28:37.419Z,53.02
2019-04-20T04:33:53.274Z,52.85
2019-04-20T04:36:08.923Z,53.13
2019-04-20T04:38:42.383Z,52.83
2019-04-20T04:41:16.722Z,52.62
2019-04-20T04:43:37.134Z,52.52
2019-04-20T04:45:46.922Z,51.87
2019-04-20T04:48:23.801Z,52.85
2019-04-20T04:50:52.775Z,52.59
2019-04-20T04:53:27.149Z,52.43
2019-04-20T04:55:50.812Z,52.19
2019-04-20T04:58:12.782Z,51.78
2019-04-20T05:00:42.561Z,52.12
2019-04-20T05:03:28.482Z,51.91
2019-04-20T05:06:18.706Z,51.76
2019-04-20T05:08:36.836Z,51.43
2019-04-20T05:10:58.415Z,51.22
2019-04-20T05:13:38.007Z,50.74
2019-04-20T05:16:11.063Z,50.72
2019-04-20T05:18:51.240Z,50.45
2019-04-20T05:21:38.879Z,49.99
2019-04-20T05:24:10.052Z,50.01
2019-04-20T05:26:49.344Z,49.66
2019-04-20T05:29:07.939Z,49.35
2019-04-20T05:31:34.034Z,48.93
2019-04-20T05:34:20.609Z,48.23
2019-04-20T05:36:46.230Z,47.51
2019-04-20T05:39:23.635Z,46.79
2019-04-20T05:41:42.030Z,46.46
2019-04-20T05:44:25.531Z,46.04
2019-04-20T05:47:02.817Z,45.94
2019-04-20T05:49:31.690Z,45.87
2019-04-20T05:51:54.702Z,45.48
2019-04-20T05:54:25.541Z,45.30
2019-04-20T05:56:56.316Z,44.94
2019-04-20T05:59:28.367Z,44.87
2019-04-20T06:01:58.796Z,44.79
2019-04-20T06:04:44.537Z,44.80
2019-04-20T06:06:55.377Z,44.97
2019-04-20T06:09:29.558Z,44.90
2019-04-20T06:12:08.964Z,44.79
2019-04-20T06:14:36.773Z,44.20
2019-04-20T06:17:27.067Z,44.62
2019-04-20T06:19:54.634Z,44.22
2019-04-20T06:22:41.414Z,44.01
2019-04-20T06:25:31.146Z,43.83
2019-04-20T06:27:45.175Z,43.68
2019-04-20T06:30:11.025Z,43.60
2019-04-20T06:33:33.759Z,43.55
2019-04-20T06:36:13.966Z,43.31
2019-04-20T06:38:38.699Z,42.25
2019-04-20T06:40:59.503Z,41.44
2019-04-20T06:43:11.119Z,40.67
2019-04-20T06:45:51.871Z,40.48
2019-04-20T06:48:22.175Z,40.76
2019-04-20T06:50:39.056Z,40.07
2019-04-20T06:53:31.864Z,39.70
2019-04-20T06:56:06.751Z,39.96
2019-04-20T06:58:47.844Z,40.00
2019-04-20T07:01:04.182Z,39.42
2019-04-20T07:03:46.721Z,39.26
2019-04-20T07:06:06.366Z,38.88
2019-04-20T07:11:04.271Z,38.04
2019-04-20T07:13:19.285Z,37.92
2019-04-20T07:15:57.213Z,37.66
2019-04-20T07:18:40.585Z,37.15
2019-04-20T07:21:05.320Z,36.81
2019-04-20T07:23:57.497Z,36.63
2019-04-20T07:26:12.803Z,36.48
2019-04-20T07:28:41.376Z,36.57
2019-04-20T07:31:01.726Z,36.32
2019-04-20T07:33:32.148Z,36.43
2019-04-20T07:36:04.197Z,36.16
2019-04-20T07:38:34.307Z,36.29
2019-04-20T07:41:00.884Z,36.02
2019-04-20T07:43:29.952Z,36.06
2019-04-20T07:46:04.925Z,35.74
2019-04-20T07:48:26.407Z,35.59
2019-04-20T07:50:48.684Z,35.53
2019-04-20T07:53:21.395Z,35.45
2019-04-20T07:55:53.977Z,35.26
2019-04-20T07:58:15.578Z,34.40
2019-04-20T08:01:02.537Z,34.26
2019-04-20T08:05:55.197Z,32.94
2019-04-20T08:08:28.129Z,32.09
2019-04-20T08:11:00.267Z,31.65
2019-04-20T08:13:40.350Z,31.31
2019-04-20T08:16:06.697Z,31.14
2019-04-20T08:21:06.400Z,30.46
2019-04-20T08:23:30.007Z,29.77
2019-04-20T08:25:52.225Z,29.41
2019-04-20T08:28:22.686Z,29.77
2019-04-20T08:31:17.852Z,30.15
2019-04-20T08:34:01.855Z,29.94
2019-04-20T08:36:22.744Z,30.08
2019-04-20T08:41:17.030Z,28.42
2019-04-20T08:44:09.834Z,28.33
2019-04-20T08:46:22.707Z,27.33
2019-04-20T08:48:46.345Z,26.28
2019-04-20T08:51:14.569Z,26.84
2019-04-20T08:53:50.727Z,26.04
2019-04-20T08:56:09.880Z,26.14
2019-04-20T08:58:24.847Z,25.20
2019-04-20T09:00:58.794Z,25.27
2019-04-20T09:03:29.084Z,24.85
2019-04-20T09:06:01.019Z,25.01
2019-04-20T09:08:28.093Z,24.70
2019-04-20T09:11:09.914Z,23.88
2019-04-20T09:13:29.972Z,23.50
2019-04-20T09:15:49.424Z,24.13
2019-04-20T09:18:36.366Z,24.29
2019-04-20T09:21:01.134Z,23.75
2019-04-20T09:23:42.391Z,23.18
2019-04-20T09:26:29.370Z,23.28
2019-04-20T09:28:36.393Z,22.90
2019-04-20T09:31:15.333Z,22.63
2019-04-20T09:33:57.075Z,22.58
2019-04-20T09:36:29.202Z,22.30
2019-04-20T09:39:10.388Z,22.00
2019-04-20T09:41:54.634Z,22.50
2019-04-20T09:44:02.793Z,19.94
2019-04-20T09:46:39.348Z,20.30
2019-04-20T09:49:13.128Z,20.30
2019-04-20T09:54:18.908Z,20.57
2019-04-20T09:56:48.386Z,21.02
2019-04-20T09:59:16.834Z,20.50
2019-04-20T10:01:35.091Z,20.45
2019-04-20T10:03:57.256Z,19.60
2019-04-20T10:06:30.641Z,19.73
2019-04-20T10:08:59.792Z,19.36
2019-04-20T10:11:25.491Z,18.81
2019-04-20T10:13:54.522Z,19.57
2019-04-20T10:16:23.919Z,19.69
2019-04-20T10:18:54.963Z,18.33
2019-04-20T10:21:23.621Z,17.48
2019-04-20T10:23:52.493Z,16.79
2019-04-20T10:26:20.926Z,17.06
2019-04-20T10:28:50.177Z,17.49
2019-04-20T10:31:20.378Z,16.58
2019-04-20T10:33:49.353Z,15.95
2019-04-20T10:36:26.198Z,16.57
2019-04-20T10:38:55.436Z,16.69
2019-04-20T10:41:36.017Z,17.80
2019-04-20T10:43:53.993Z,17.88
2019-04-20T10:46:23.239Z,16.57
2019-04-20T10:48:54.459Z,17.17
2019-04-20T10:51:21.867Z,16.86
2019-04-20T10:53:51.129Z,16.48
2019-04-20T10:56:21.343Z,15.39
2019-04-20T10:58:49.842Z,16.15
2019-04-20T11:01:19.925Z,17.26
2019-04-20T11:03:48.330Z,16.33
2019-04-20T11:06:18.648Z,16.82
2019-04-20T11:08:46.947Z,17.73
2019-04-20T11:11:23.873Z,15.67
2019-04-20T11:13:45.670Z,16.70
2019-04-20T11:16:14.881Z,16.01
2019-04-20T11:18:45.208Z,16.01
2019-04-20T11:21:13.461Z,16.65
2019-04-20T11:23:42.705Z,17.11
2019-04-20T11:26:11.967Z,16.12
2019-04-20T11:28:42.016Z,14.53
2019-04-20T11:31:10.676Z,15.52
2019-04-20T11:33:40.407Z,16.09
2019-04-20T11:36:09.435Z,15.03
2019-04-20T11:38:38.711Z,15.96
2019-04-20T11:41:16.532Z,15.52
2019-04-20T11:43:37.705Z,15.79
2019-04-20T11:46:06.899Z,15.08
2019-04-20T11:48:37.169Z,16.26
2019-04-20T11:51:05.527Z,15.54
2019-04-20T11:53:34.387Z,13.90
2019-04-20T11:56:06.703Z,14.89
2019-04-20T11:58:33.202Z,14.64
2019-04-20T12:01:12.186Z,14.64
2019-04-20T12:03:47.417Z,14.91
2019-04-20T12:06:07.036Z,15.45
2019-04-20T12:08:36.922Z,14.23
2019-04-20T12:11:18.772Z,13.45
2019-04-20T12:13:32.272Z,13.13
2019-04-20T12:16:01.623Z,12.91
2019-04-20T12:18:31.685Z,12.91
2019-04-20T12:21:00.855Z,13.75
2019-04-20T12:23:30.601Z,13.39
2019-04-20T12:25:59.807Z,13.09
2019-04-20T12:28:29.481Z,12.82
2019-04-20T12:31:04.019Z,13.03
2019-04-20T12:33:26.559Z,13.83
2019-04-20T12:35:56.283Z,13.43
2019-04-20T12:38:25.291Z,14.08
2019-04-20T12:40:55.587Z,13.36
2019-04-20T12:43:23.745Z,14.35
2019-04-20T12:45:53.831Z,14.33
2019-04-20T12:48:22.264Z,14.07
2019-04-20T12:50:51.506Z,13.32
2019-04-20T12:53:20.859Z,13.68
2019-04-20T12:55:50.759Z,12.77
2019-04-20T12:58:20.720Z,12.20
2019-04-20T13:00:49.607Z,12.13
2019-04-20T13:03:19.058Z,13.00
2019-04-20T13:05:47.851Z,13.71
2019-04-20T13:08:23.251Z,12.55
2019-04-20T13:10:48.773Z,13.26
2019-04-20T13:13:23.124Z,12.74
2019-04-20T13:16:12.246Z,12.38
2019-04-20T13:18:45.350Z,13.30
2019-04-20T13:21:17.062Z,13.16
2019-04-20T13:23:47.067Z,12.86
2019-04-20T13:26:16.147Z,12.77
2019-04-20T13:28:44.890Z,13.13
2019-04-20T13:31:15.613Z,13.17
2019-04-20T13:33:43.517Z,12.00
2019-04-20T13:36:12.771Z,12.46
2019-04-20T13:38:42.163Z,12.59
2019-04-20T13:41:11.704Z,12.19
2019-04-20T13:43:41.849Z,12.84
2019-04-20T13:46:11.064Z,12.21
2019-04-20T13:48:39.287Z,12.11
2019-04-20T13:51:09.844Z,11.46
2019-04-20T13:53:38.970Z,11.65
2019-04-20T13:56:07.836Z,11.24
2019-04-20T13:58:59.161Z,12.12
2019-04-20T14:01:48.535Z,12.37
2019-04-20T14:04:18.968Z,10.92
2019-04-20T14:06:48.668Z,11.69
2019-04-20T14:09:19.140Z,11.03
2019-04-20T14:11:47.533Z,11.31
2019-04-20T14:14:17.187Z,11.85
2019-04-20T14:16:47.286Z,10.93
2019-04-20T14:19:15.101Z,12.62
2019-04-20T14:21:44.378Z,12.23
2019-04-20T14:24:14.951Z,11.95
2019-04-20T14:26:44.529Z,10.87
2019-04-20T14:29:12.793Z,11.05
2019-04-20T14:31:41.852Z,11.16
2019-04-20T14:34:11.002Z,11.45
2019-04-20T14:36:41.146Z,11.83
2019-04-20T14:39:10.127Z,12.53
2019-04-20T14:41:40.223Z,13.55
2019-04-20T14:44:08.024Z,14.22
2019-04-20T14:46:37.840Z,14.48
2019-04-20T14:49:06.962Z,13.56
2019-04-20T14:51:35.770Z,13.96
2019-04-20T14:54:05.524Z,13.24
2019-04-20T14:56:35.680Z,12.86
2019-04-20T14:59:07.518Z,12.70
2019-04-20T15:01:55.007Z,13.25
2019-04-20T15:04:26.757Z,12.05
2019-04-20T15:06:54.745Z,11.60
2019-04-20T15:09:22.909Z,11.08
2019-04-20T15:11:52.735Z,11.83
2019-04-20T15:14:22.689Z,11.97
2019-04-20T15:16:50.939Z,11.75
2019-04-20T15:19:27.546Z,11.85
2019-04-20T15:21:57.764Z,11.78
2019-04-20T15:24:27.397Z,11.60
2019-04-20T15:26:56.455Z,11.95
2019-04-20T15:29:26.334Z,12.11
2019-04-20T15:31:54.353Z,11.65
2019-04-20T15:34:24.770Z,11.75
2019-04-20T15:36:53.976Z,11.83
2019-04-20T15:39:23.237Z,11.42
2019-04-20T15:41:51.578Z,11.31
2019-04-20T15:44:21.575Z,11.59
2019-04-20T15:46:51.081Z,11.17
2019-04-20T15:49:19.866Z,11.67
2019-04-20T15:51:49.956Z,12.18
2019-04-20T15:54:17.897Z,12.12
2019-04-20T15:56:52.446Z,11.94
2019-04-20T15:59:16.794Z,11.92
2019-04-20T16:01:49.317Z,11.48
2019-04-20T16:04:44.882Z,11.72
2019-04-20T16:07:13.056Z,11.67
2019-04-20T16:09:42.131Z,11.32
2019-04-20T16:12:11.046Z,10.80
2019-04-20T16:14:41.649Z,9.92
2019-04-20T16:17:12.305Z,9.86
2019-04-20T16:19:50.624Z,10.59
2019-04-20T16:22:08.010Z,10.70
2019-04-20T16:24:40.875Z,10.52
2019-04-20T16:27:15.803Z,9.94
2019-04-20T16:29:45.109Z,11.20
2019-04-20T16:32:14.482Z,10.42
2019-04-20T16:34:44.547Z,10.03
2019-04-20T16:37:13.014Z,10.16
2019-04-20T16:39:42.869Z,10.45
2019-04-20T16:42:14.142Z,10.51
2019-04-20T16:44:43.091Z,9.64
2019-04-20T16:47:12.305Z,9.58
2019-04-20T16:49:41.166Z,8.90
2019-04-20T16:52:10.589Z,9.24
2019-04-20T16:54:39.764Z,9.19
2019-04-20T16:57:11.430Z,9.52
2019-04-20T16:59:40.119Z,9.18
2019-04-20T17:02:07.063Z,9.46
2019-04-20T17:04:37.493Z,9.36
2019-04-20T17:07:20.663Z,9.75
2019-04-20T17:09:49.865Z,9.91
2019-04-20T17:12:19.605Z,10.49
2019-04-20T17:14:49.502Z,11.09
2019-04-20T17:17:18.157Z,11.93
2019-04-20T17:19:47.587Z,12.26
2019-04-20T17:22:17.298Z,13.40
2019-04-20T17:24:47.266Z,13.88
2019-04-20T17:27:30.728Z,14.14
2019-04-20T17:30:21.156Z,14.97
2019-04-20T17:32:47.489Z,15.18
2019-04-20T17:35:28.241Z,15.35
2019-04-20T17:37:48.659Z,15.89
2019-04-20T17:40:38.182Z,16.02
2019-04-20T17:42:53.139Z,16.70
2019-04-20T17:45:27.301Z,16.88
2019-04-20T17:48:00.964Z,17.54
2019-04-20T17:50:30.351Z,17.54
2019-04-20T17:52:59.387Z,17.81
2019-04-20T17:55:24.582Z,18.00
2019-04-20T17:57:44.877Z,18.53
2019-04-20T18:00:38.395Z,18.62
2019-04-20T18:03:18.588Z,18.85
2019-04-20T18:05:55.778Z,19.17
2019-04-20T18:08:27.091Z,19.40
2019-04-20T18:10:47.493Z,19.59
2019-04-20T18:13:07.990Z,19.88
2019-04-20T18:15:47.224Z,19.97
2019-04-20T18:18:50.751Z,20.23
2019-04-20T18:21:26.656Z,20.59
2019-04-20T18:23:56.228Z,21.33
2019-04-20T18:26:45.571Z,21.43
2019-04-20T18:29:13.473Z,21.32
2019-04-20T18:31:39.722Z,21.61
2019-04-20T18:34:17.979Z,22.05
2019-04-20T18:36:44.651Z,22.15
2019-04-20T18:39:13.727Z,22.56
2019-04-20T18:41:46.494Z,23.20
2019-04-20T18:44:10.794Z,23.15
2019-04-20T18:47:00.720Z,23.31
2019-04-20T18:49:24.217Z,23.43
2019-04-20T18:51:37.720Z,23.46
2019-04-20T18:54:13.678Z,23.80
2019-04-20T18:56:43.187Z,23.92
2019-04-20T18:59:05.415Z,24.66
2019-04-20T19:01:39.560Z,24.53
2019-04-20T19:04:03.863Z,24.52
2019-04-20T19:06:34.042Z,24.82
2019-04-20T19:09:02.940Z,25.17
2019-04-20T19:11:37.551Z,25.75
2019-04-20T19:14:28.605Z,25.86
2019-04-20T19:17:00.170Z,25.78
2019-04-20T19:19:37.469Z,25.37
2019-04-20T19:21:58.394Z,25.74
2019-04-20T19:24:30.981Z,26.02
2019-04-20T19:27:02.981Z,26.36
2019-04-20T19:29:32.746Z,26.80
2019-04-20T19:32:11.527Z,26.67
2019-04-20T19:34:38.068Z,27.11
2019-04-20T19:37:07.259Z,27.71
2019-04-20T19:39:40.244Z,27.48
2019-04-20T19:42:02.931Z,27.61
2019-04-20T19:44:32.573Z,28.05
2019-04-20T19:47:10.703Z,28.21
2019-04-20T19:49:32.687Z,28.28
2019-04-20T19:52:20.207Z,28.87
2019-04-20T19:54:41.466Z,28.48
2019-04-20T19:57:01.366Z,28.13
2019-04-20T19:59:26.349Z,28.30
2019-04-20T20:01:47.684Z,28.32
2019-04-20T20:04:15.760Z,29.11
2019-04-20T20:06:49.675Z,29.05
2019-04-20T20:09:16.048Z,29.30
2019-04-20T20:11:44.972Z,29.52
2019-04-20T20:14:16.960Z,30.02
2019-04-20T20:16:59.840Z,30.30
2019-04-20T20:19:28.105Z,30.54
2019-04-20T20:22:00.387Z,30.64
2019-04-20T20:24:14.273Z,30.76
2019-04-20T20:26:48.735Z,31.00
2019-04-20T20:29:19.726Z,31.94
2019-04-20T20:31:52.803Z,31.77
2019-04-20T20:34:17.088Z,31.66
2019-04-20T20:36:47.172Z,31.79
2019-04-20T20:39:15.973Z,31.96
2019-04-20T20:41:49.266Z,32.06
2019-04-20T20:44:15.709Z,32.96
2019-04-20T20:46:48.765Z,33.05
2019-04-20T20:49:25.306Z,33.34
2019-04-20T20:51:54.177Z,33.76
2019-04-20T20:54:17.404Z,33.62
2019-04-20T20:56:37.216Z,33.61
2019-04-20T20:59:11.221Z,34.46
2019-04-20T21:01:41.329Z,34.47
2019-04-20T21:04:01.007Z,34.29
2019-04-20T21:06:30.683Z,34.14
2019-04-20T21:09:01.339Z,34.31
2019-04-20T21:11:32.468Z,34.27
2019-04-20T21:13:59.285Z,34.36
2019-04-20T21:16:31.914Z,34.89
2019-04-20T21:19:14.674Z,34.92
2019-04-20T21:21:38.750Z,35.30
2019-04-20T21:24:07.108Z,35.47
2019-04-20T21:26:35.045Z,35.68
2019-04-20T21:28:59.686Z,35.84
2019-04-20T21:31:29.668Z,36.23
2019-04-20T21:34:02.895Z,36.68
2019-04-20T21:36:29.969Z,37.28
2019-04-20T21:38:58.015Z,37.64
2019-04-20T21:41:27.453Z,37.85
2019-04-20T21:43:55.979Z,37.88
2019-04-20T21:46:24.875Z,38.04
2019-04-20T21:49:07.199Z,38.13
2019-04-20T21:51:32.238Z,38.57
2019-04-20T21:53:55.251Z,38.81
2019-04-20T21:56:21.923Z,39.65
2019-04-20T21:58:57.515Z,39.64
2019-04-20T22:01:27.194Z,40.42
2019-04-20T22:03:50.287Z,40.61
2019-04-20T22:06:18.443Z,40.67
2019-04-20T22:08:52.886Z,41.10
2019-04-20T22:11:17.865Z,41.42
2019-04-20T22:13:49.058Z,42.25
2019-04-20T22:16:18.145Z,42.56
2019-04-20T22:18:51.223Z,42.80
2019-04-20T22:21:22.574Z,42.98
2019-04-20T22:23:59.826Z,42.96
2019-04-20T22:26:26.580Z,43.37
2019-04-20T22:28:42.401Z,43.78
2019-04-20T22:31:11.944Z,43.99
2019-04-20T22:33:43.052Z,44.37
2019-04-20T22:36:11.323Z,44.48
2019-04-20T22:39:05.330Z,44.98
2019-04-20T22:41:34.568Z,45.33
2019-04-20T22:44:11.843Z,45.62
2019-04-20T22:46:35.706Z,45.56
2019-04-20T22:49:22.003Z,45.83
2019-04-20T22:51:46.165Z,46.06
2019-04-20T22:54:16.945Z,46.49
2019-04-20T22:56:44.084Z,46.68
2019-04-20T22:59:06.251Z,47.04
2019-04-20T23:01:38.760Z,47.27
2019-04-20T23:03:59.032Z,47.29
2019-04-20T23:06:35.456Z,47.78
2019-04-20T23:09:03.158Z,48.10
2019-04-20T23:11:29.104Z,48.56
2019-04-20T23:13:56.185Z,49.23
2019-04-20T23:16:27.925Z,49.21
2019-04-20T23:18:54.150Z,49.25
2019-04-20T23:21:23.869Z,49.84
2019-04-20T23:23:53.699Z,49.84
2019-04-20T23:26:27.933Z,49.90
2019-04-20T23:28:55.465Z,50.09
2019-04-20T23:31:24.845Z,50.44
2019-04-20T23:33:49.907Z,50.66
2019-04-20T23:36:31.856Z,50.30
2019-04-20T23:38:52.675Z,50.47
2019-04-20T23:41:19.607Z,50.71
2019-04-20T23:43:54.903Z,50.76
2019-04-20T23:46:29.360Z,50.98
2019-04-20T23:49:20.013Z,51.74
2019-04-20T23:52:05.497Z,51.71
2019-04-20T23:54:18.551Z,52.10
2019-04-20T23:56:41.657Z,52.73
2019-04-20T23:59:10.680Z,52.98
